createdAt,value
2023-01-06T00:00:09.008Z,14.37
2023-01-06T00:02:37.554Z,5.93
2023-01-06T00:05:06.966Z,5.70
2023-01-06T00:07:35.426Z,6.20
2023-01-06T00:10:05.904Z,8.87
2023-01-06T00:12:34.597Z,4.30
2023-01-06T00:15:03.062Z,2.83
2023-01-06T00:17:32.206Z,3.50
2023-01-06T00:20:00.779Z,4.83
2023-01-06T00:22:29.192Z,7.23
2023-01-06T00:24:57.617Z,9.20
2023-01-06T00:27:27.468Z,5.07
2023-01-06T00:29:55.912Z,8.20
2023-01-06T00:32:24.392Z,10.07
2023-01-06T00:34:52.821Z,4.73
2023-01-06T00:37:21.291Z,10.17
2023-01-06T00:39:49.774Z,5.33
2023-01-06T00:42:18.223Z,10.00
2023-01-06T00:44:48.043Z,5.63
2023-01-06T00:47:16.684Z,10.63
2023-01-06T00:49:45.139Z,5.17
2023-01-06T00:52:14.173Z,7.80
2023-01-06T00:54:42.994Z,11.30
2023-01-06T00:57:12.161Z,6.70
2023-01-06T00:59:42.152Z,6.47
2023-01-06T01:02:12.113Z,8.83
2023-01-06T01:04:40.645Z,9.70
2023-01-06T01:07:09.499Z,5.10
2023-01-06T01:09:38.033Z,7.17
2023-01-06T01:12:12.982Z,9.27
2023-01-06T01:14:44.561Z,6.87
2023-01-06T01:17:16.150Z,5.07
2023-01-06T01:19:44.771Z,5.33
2023-01-06T01:22:13.547Z,5.27
2023-01-06T01:24:41.995Z,4.60
2023-01-06T01:27:10.673Z,6.73
2023-01-06T01:29:39.100Z,6.53
2023-01-06T01:32:07.679Z,8.93
2023-01-06T01:34:37.619Z,3.10
2023-01-06T01:37:06.137Z,5.53
2023-01-06T01:39:34.611Z,6.30
2023-01-06T01:42:03.039Z,5.57
2023-01-06T01:44:55.020Z,5.43
2023-01-06T01:47:30.120Z,4.03
2023-01-06T01:50:04.461Z,3.17
2023-01-06T01:52:34.509Z,7.13
2023-01-06T01:55:03.790Z,3.33
2023-01-06T01:57:36.212Z,5.67
2023-01-06T02:00:07.918Z,8.83
2023-01-06T02:02:42.873Z,2.83
2023-01-06T02:05:15.072Z,5.80
2023-01-06T02:07:43.653Z,7.47
2023-01-06T02:10:16.053Z,8.17
2023-01-06T02:12:47.177Z,5.00
2023-01-06T02:15:17.743Z,3.43
2023-01-06T02:18:07.479Z,5.13
2023-01-06T02:20:53.046Z,6.97
2023-01-06T02:23:51.577Z,8.73
2023-01-06T02:27:00.605Z,5.33
2023-01-06T02:30:12.830Z,4.33
2023-01-06T02:32:54.492Z,7.63
2023-01-06T02:35:39.416Z,6.80
2023-01-06T02:38:17.359Z,3.70
2023-01-06T02:41:00.488Z,6.03
2023-01-06T02:43:39.736Z,9.07
2023-01-06T02:46:16.391Z,2.97
2023-01-06T02:48:55.790Z,4.33
2023-01-06T02:51:32.680Z,6.37
2023-01-06T02:54:09.708Z,4.80
2023-01-06T02:56:43.588Z,4.60
2023-01-06T02:59:19.942Z,5.60
2023-01-06T03:01:52.293Z,5.30
2023-01-06T03:04:27.615Z,6.43
2023-01-06T03:07:02.109Z,5.70
2023-01-06T03:09:34.965Z,8.77
2023-01-06T03:12:09.868Z,6.87
2023-01-06T03:14:42.933Z,4.03
2023-01-06T03:17:12.007Z,2.80
2023-01-06T03:19:42.044Z,4.40
2023-01-06T03:22:13.772Z,4.20
2023-01-06T03:24:44.278Z,2.77
2023-01-06T03:27:12.808Z,4.90
2023-01-06T03:29:42.355Z,3.80
2023-01-06T03:32:20.678Z,7.87
2023-01-06T03:35:04.235Z,5.53
2023-01-06T03:37:44.772Z,3.10
2023-01-06T03:40:20.223Z,3.97
2023-01-06T03:43:12.434Z,3.30
2023-01-06T03:45:57.356Z,4.43
2023-01-06T03:48:40.276Z,6.47
2023-01-06T03:51:19.695Z,3.07
2023-01-06T03:53:59.587Z,5.77
2023-01-06T03:56:31.537Z,4.97
2023-01-06T03:59:06.207Z,2.83
2023-01-06T04:01:35.667Z,5.07
2023-01-06T04:04:04.389Z,4.93
2023-01-06T04:06:34.676Z,9.17
2023-01-06T04:09:05.663Z,1.93
2023-01-06T04:11:54.905Z,4.30
2023-01-06T04:14:24.807Z,7.03
2023-01-06T04:16:54.437Z,1.83
2023-01-06T04:19:23.936Z,6.50
2023-01-06T04:21:53.783Z,3.97
2023-01-06T04:24:22.816Z,1.70
2023-01-06T04:26:51.280Z,5.70
2023-01-06T04:29:19.758Z,5.50
2023-01-06T04:31:49.402Z,8.70
2023-01-06T04:34:17.881Z,3.67
2023-01-06T04:36:46.813Z,3.33
2023-01-06T04:39:16.604Z,5.43
2023-01-06T04:41:45.076Z,4.73
2023-01-06T04:44:13.533Z,2.17
2023-01-06T04:46:41.976Z,1.33
2023-01-06T04:49:10.650Z,1.70
2023-01-06T04:51:39.108Z,5.83
2023-01-06T04:54:07.493Z,6.57
2023-01-06T04:56:37.295Z,4.90
2023-01-06T04:59:05.768Z,3.77
2023-01-06T05:01:34.515Z,5.23
2023-01-06T05:04:03.122Z,3.77
2023-01-06T05:06:31.578Z,2.40
2023-01-06T05:09:00.162Z,2.27
2023-01-06T05:11:28.592Z,5.60
2023-01-06T05:13:59.199Z,3.33
2023-01-06T05:16:29.475Z,2.07
2023-01-06T05:18:58.273Z,4.47
2023-01-06T05:21:31.487Z,2.90
2023-01-06T05:24:00.838Z,4.17
2023-01-06T05:26:29.587Z,2.23
2023-01-06T05:28:59.444Z,2.60
2023-01-06T05:31:28.047Z,2.27
2023-01-06T05:33:56.509Z,2.73
2023-01-06T05:36:24.957Z,1.60
2023-01-06T05:38:54.496Z,2.07
2023-01-06T05:41:23.020Z,2.80
2023-01-06T05:43:51.506Z,3.63
2023-01-06T05:46:21.345Z,5.70
2023-01-06T05:48:49.864Z,4.83
2023-01-06T05:51:18.389Z,9.23
2023-01-06T05:53:48.400Z,6.13
2023-01-06T05:56:18.539Z,2.27
2023-01-06T05:58:49.429Z,1.80
2023-01-06T06:01:20.048Z,1.30
2023-01-06T06:03:50.375Z,6.53
2023-01-06T06:06:20.202Z,6.73
2023-01-06T06:08:48.742Z,1.53
2023-01-06T06:11:19.191Z,3.33
2023-01-06T06:13:48.138Z,1.63
2023-01-06T06:16:18.333Z,17.20
2023-01-06T06:18:51.881Z,1.53
2023-01-06T06:21:21.976Z,3.07
2023-01-06T06:24:48.718Z,1.77
2023-01-06T06:27:17.165Z,1.80
2023-01-06T06:29:45.624Z,2.80
2023-01-06T06:32:14.097Z,2.50
2023-01-06T06:34:43.933Z,1.70
2023-01-06T06:37:12.691Z,2.17
2023-01-06T06:39:41.308Z,3.70
2023-01-06T06:42:09.734Z,3.77
2023-01-06T06:44:38.175Z,1.90
2023-01-06T06:47:06.629Z,1.80
2023-01-06T06:49:35.079Z,1.90
2023-01-06T06:52:05.163Z,3.83
2023-01-06T06:54:33.606Z,1.97
2023-01-06T06:57:02.059Z,2.20
2023-01-06T06:59:30.478Z,3.10
2023-01-06T07:01:59.094Z,3.20
2023-01-06T07:04:27.907Z,4.63
2023-01-06T07:06:57.674Z,6.23
2023-01-06T07:09:27.468Z,4.50
2023-01-06T07:11:55.919Z,3.83
2023-01-06T07:14:24.341Z,2.23
2023-01-06T07:16:52.784Z,3.83
2023-01-06T07:19:21.225Z,5.17
2023-01-06T07:21:49.667Z,3.37
2023-01-06T07:24:18.128Z,2.87
2023-01-06T07:26:47.934Z,5.03
2023-01-06T07:29:16.567Z,3.37
2023-01-06T07:31:45.007Z,2.77
2023-01-06T07:34:13.418Z,4.87
2023-01-06T07:36:41.864Z,1.77
2023-01-06T07:39:10.373Z,2.97
2023-01-06T07:41:39.085Z,5.37
2023-01-06T07:44:16.129Z,4.83
2023-01-06T07:46:46.257Z,4.27
2023-01-06T07:49:14.788Z,3.20
2023-01-06T07:51:43.266Z,3.50
2023-01-06T07:54:11.969Z,4.30
2023-01-06T07:56:40.449Z,4.07
2023-01-06T07:59:08.980Z,6.80
2023-01-06T08:01:38.971Z,5.57
2023-01-06T08:04:07.477Z,2.93
2023-01-06T08:06:35.909Z,4.93
2023-01-06T08:09:04.475Z,4.03
2023-01-06T08:11:32.934Z,5.50
2023-01-06T08:14:01.386Z,7.13
2023-01-06T08:16:29.824Z,5.00
2023-01-06T08:18:59.795Z,5.17
2023-01-06T08:21:28.273Z,4.17
2023-01-06T08:23:56.782Z,5.77
2023-01-06T08:26:25.360Z,3.23
2023-01-06T08:28:55.110Z,6.60
2023-01-06T08:31:24.689Z,11.97
2023-01-06T08:33:53.587Z,4.03
2023-01-06T08:36:25.119Z,4.17
2023-01-06T08:38:53.867Z,5.37
2023-01-06T08:41:22.539Z,5.70
2023-01-06T08:43:51.015Z,4.03
2023-01-06T08:46:21.306Z,4.33
2023-01-06T08:48:49.853Z,6.57
2023-01-06T08:51:20.948Z,6.47
2023-01-06T08:53:51.620Z,5.87
2023-01-06T08:56:22.228Z,5.67
2023-01-06T08:58:54.799Z,11.23
2023-01-06T09:01:26.075Z,6.73
2023-01-06T09:03:54.624Z,3.57
2023-01-06T09:06:23.202Z,12.37
2023-01-06T09:08:53.625Z,7.17
2023-01-06T09:11:22.205Z,7.53
2023-01-06T09:13:51.491Z,3.83
2023-01-06T09:16:20.932Z,5.50
2023-01-06T09:18:50.518Z,7.23
2023-01-06T09:21:20.662Z,9.47
2023-01-06T09:23:49.693Z,7.77
2023-01-06T09:26:21.539Z,9.20
2023-01-06T09:28:49.976Z,8.53
2023-01-06T09:31:18.921Z,10.57
2023-01-06T09:33:47.818Z,6.30
2023-01-06T09:36:16.264Z,11.90
2023-01-06T09:38:44.752Z,14.77
2023-01-06T09:41:38.060Z,10.07
2023-01-06T09:44:12.729Z,10.07
2023-01-06T09:46:44.977Z,9.47
2023-01-06T09:49:21.992Z,4.37
2023-01-06T09:51:50.501Z,11.67
2023-01-06T09:54:22.139Z,13.53
2023-01-06T09:56:55.648Z,8.47
2023-01-06T09:59:29.490Z,7.93
2023-01-06T10:01:59.784Z,10.07
2023-01-06T10:04:30.467Z,5.90
2023-01-06T10:07:12.038Z,12.87
2023-01-06T10:09:50.358Z,7.50
2023-01-06T10:12:32.865Z,9.03
2023-01-06T10:15:14.284Z,3.83
2023-01-06T10:17:55.668Z,17.10
2023-01-06T10:20:51.158Z,9.53
2023-01-06T10:23:37.435Z,7.37
2023-01-06T10:26:13.255Z,6.73
2023-01-06T10:28:45.183Z,4.37
2023-01-06T10:31:17.214Z,8.80
2023-01-06T10:33:51.184Z,8.93
2023-01-06T10:36:29.277Z,6.87
2023-01-06T10:38:58.830Z,7.20
2023-01-06T10:41:41.282Z,8.97
2023-01-06T10:44:12.288Z,3.67
2023-01-06T10:46:42.138Z,6.03
2023-01-06T10:49:18.734Z,4.50
2023-01-06T10:51:52.622Z,13.20
2023-01-06T10:54:25.881Z,7.87
2023-01-06T10:56:56.945Z,5.50
2023-01-06T10:59:26.929Z,4.93
2023-01-06T11:01:58.009Z,9.47
2023-01-06T11:04:27.811Z,6.70
2023-01-06T11:06:59.431Z,7.03
2023-01-06T11:09:31.058Z,4.33
2023-01-06T11:12:02.317Z,5.37
2023-01-06T11:14:33.787Z,6.87
2023-01-06T11:17:03.937Z,6.27
2023-01-06T11:19:38.146Z,3.57
2023-01-06T11:22:27.274Z,1.40
2023-01-06T11:24:56.074Z,2.23
2023-01-06T11:27:24.537Z,6.20
2023-01-06T11:29:54.345Z,3.17
2023-01-06T11:32:27.688Z,2.93
2023-01-06T11:34:58.029Z,5.60
2023-01-06T11:37:34.763Z,6.10
2023-01-06T11:40:11.605Z,1.33
2023-01-06T11:45:32.390Z,5.10
2023-01-06T11:48:01.030Z,9.23
2023-01-06T11:50:29.664Z,2.97
2023-01-06T11:53:02.619Z,2.90
2023-01-06T11:55:31.640Z,2.73
2023-01-06T11:58:06.068Z,9.87
2023-01-06T12:00:48.929Z,4.13
2023-01-06T12:03:24.752Z,9.33
2023-01-06T12:05:59.371Z,6.33
2023-01-06T12:08:33.381Z,8.53
2023-01-06T12:11:08.038Z,4.83
2023-01-06T12:13:45.004Z,3.17
2023-01-06T12:16:35.117Z,5.07
2023-01-06T12:19:05.725Z,4.20
2023-01-06T12:21:37.283Z,3.30
2023-01-06T12:24:07.994Z,1.40
2023-01-06T12:26:37.712Z,7.37
2023-01-06T12:29:08.480Z,5.00
2023-01-06T12:31:48.658Z,2.60
2023-01-06T12:34:22.055Z,3.70
2023-01-06T12:36:56.321Z,6.97
2023-01-06T12:39:36.970Z,7.27
2023-01-06T12:42:15.688Z,3.40
2023-01-06T12:44:48.025Z,4.13
2023-01-06T12:47:25.287Z,1.20
2023-01-06T12:49:58.436Z,3.97
2023-01-06T12:52:32.843Z,2.80
2023-01-06T12:55:02.326Z,6.77
2023-01-06T12:57:43.919Z,6.57
2023-01-06T13:00:24.396Z,1.67
2023-01-06T13:03:19.726Z,4.47
2023-01-06T13:05:55.986Z,2.07
2023-01-06T13:08:48.073Z,8.30
2023-01-06T13:11:24.931Z,8.40
2023-01-06T13:14:01.629Z,5.63
2023-01-06T13:16:37.279Z,4.00
2023-01-06T13:19:20.636Z,5.10
2023-01-06T13:21:52.453Z,4.00
2023-01-06T13:24:36.883Z,2.37
2023-01-06T13:27:38.841Z,6.70
2023-01-06T13:30:34.182Z,3.23
2023-01-06T13:33:29.866Z,15.83
2023-01-06T13:36:16.325Z,6.23
2023-01-06T13:38:58.138Z,4.93
2023-01-06T13:41:32.125Z,3.23
2023-01-06T13:44:02.739Z,3.73
2023-01-06T13:46:33.875Z,2.60
2023-01-06T13:49:05.436Z,6.40
2023-01-06T13:51:37.465Z,2.57
2023-01-06T13:54:06.008Z,4.37
2023-01-06T13:56:35.977Z,4.00
2023-01-06T13:59:22.451Z,8.43
2023-01-06T14:01:52.512Z,11.27
2023-01-06T14:04:58.059Z,6.03
2023-01-06T14:07:36.770Z,0.77
2023-01-06T14:10:08.793Z,2.03
2023-01-06T14:12:38.256Z,3.97
2023-01-06T14:15:19.417Z,7.00
2023-01-06T14:17:48.833Z,4.97
2023-01-06T14:20:28.286Z,4.97
2023-01-06T14:23:05.198Z,4.00
2023-01-06T14:25:37.117Z,2.43
2023-01-06T14:28:27.702Z,2.93
2023-01-06T14:31:38.754Z,2.90
2023-01-06T14:34:12.540Z,4.50
2023-01-06T14:36:41.902Z,4.23
2023-01-06T14:39:21.103Z,1.07
2023-01-06T14:41:58.059Z,2.23
2023-01-06T14:44:35.230Z,6.80
2023-01-06T14:47:07.346Z,4.37
2023-01-06T14:49:49.179Z,4.43
2023-01-06T14:52:20.993Z,5.40
2023-01-06T14:54:53.225Z,6.80
2023-01-06T14:57:26.717Z,6.03
2023-01-06T15:00:17.863Z,4.93
2023-01-06T15:02:48.267Z,2.97
2023-01-06T15:05:21.643Z,5.90
2023-01-06T15:08:01.137Z,1.80
2023-01-06T15:10:35.183Z,7.13
2023-01-06T15:13:04.063Z,7.30
2023-01-06T15:15:34.163Z,3.97
2023-01-06T15:18:03.754Z,3.33
2023-01-06T15:20:35.169Z,6.97
2023-01-06T15:23:04.070Z,6.13
2023-01-06T15:25:37.873Z,6.57
2023-01-06T15:28:06.548Z,5.83
2023-01-06T15:30:36.833Z,5.23
2023-01-06T15:33:05.969Z,5.53
2023-01-06T15:35:35.091Z,4.40
2023-01-06T15:38:08.051Z,4.20
2023-01-06T15:40:40.486Z,5.47
2023-01-06T15:43:10.887Z,5.93
2023-01-06T15:45:39.842Z,8.63
2023-01-06T15:48:12.359Z,3.00
2023-01-06T15:50:41.681Z,4.40
2023-01-06T15:53:25.347Z,8.57
2023-01-06T15:55:57.128Z,7.87
2023-01-06T15:58:30.239Z,10.10
2023-01-06T16:01:03.496Z,6.97
2023-01-06T16:03:33.226Z,10.63
2023-01-06T16:06:11.231Z,9.17
2023-01-06T16:08:41.635Z,28.87
2023-01-06T16:11:40.683Z,11.50
2023-01-06T16:14:27.762Z,7.10
2023-01-06T16:17:05.947Z,9.00
2023-01-06T16:19:35.355Z,11.50
2023-01-06T16:22:06.601Z,11.40
2023-01-06T16:24:35.601Z,8.47
2023-01-06T16:27:07.569Z,15.83
2023-01-06T16:29:38.562Z,10.17
2023-01-06T16:32:28.157Z,13.90
2023-01-06T16:35:02.597Z,12.37
2023-01-06T16:37:34.610Z,16.20
2023-01-06T16:40:03.558Z,17.40
2023-01-06T16:42:41.025Z,28.63
2023-01-06T16:45:18.807Z,25.07
2023-01-06T16:47:47.963Z,22.27
2023-01-06T16:50:20.616Z,16.57
2023-01-06T16:52:52.440Z,23.00
2023-01-06T16:55:21.942Z,27.83
2023-01-06T16:57:52.973Z,21.70
2023-01-06T17:00:23.952Z,26.87
2023-01-06T17:02:54.499Z,59.60
2023-01-06T17:05:28.679Z,66.30
2023-01-06T17:08:00.909Z,44.87
2023-01-06T17:10:30.900Z,40.77
2023-01-06T17:13:20.909Z,14.23
2023-01-06T17:15:52.659Z,15.67
2023-01-06T17:18:27.522Z,11.50
2023-01-06T17:21:01.230Z,12.43
2023-01-06T17:23:32.509Z,15.73
2023-01-06T17:26:04.065Z,18.07
2023-01-06T17:28:34.041Z,12.27
2023-01-06T17:31:02.659Z,18.30
2023-01-06T17:33:32.352Z,22.73
2023-01-06T17:36:02.931Z,15.57
2023-01-06T17:38:32.153Z,7.40
2023-01-06T17:41:00.616Z,16.37
2023-01-06T17:43:33.573Z,24.03
2023-01-06T17:46:03.955Z,34.27
2023-01-06T17:48:33.366Z,17.67
2023-01-06T17:51:02.256Z,11.20
2023-01-06T17:53:50.591Z,4.90
2023-01-06T17:56:20.443Z,5.90
2023-01-06T17:58:49.078Z,11.43
2023-01-06T18:01:24.627Z,9.40
2023-01-06T18:03:58.778Z,9.47
2023-01-06T18:06:30.552Z,7.30
2023-01-06T18:09:03.554Z,4.73
2023-01-06T18:11:35.521Z,5.47
2023-01-06T18:14:20.981Z,7.40
2023-01-06T18:16:54.177Z,4.53
2023-01-06T18:19:31.857Z,7.77
2023-01-06T18:22:00.908Z,3.57
2023-01-06T18:24:35.786Z,4.13
2023-01-06T18:27:13.902Z,11.00
2023-01-06T18:29:44.914Z,10.30
2023-01-06T18:32:31.228Z,6.10
2023-01-06T18:35:01.147Z,8.43
2023-01-06T18:37:31.718Z,15.13
2023-01-06T18:40:02.947Z,6.77
2023-01-06T18:42:33.039Z,13.60
2023-01-06T18:45:10.375Z,13.00
2023-01-06T18:47:42.912Z,8.20
2023-01-06T18:50:30.685Z,13.43
2023-01-06T18:53:00.424Z,9.03
2023-01-06T18:55:35.526Z,10.13
2023-01-06T18:58:15.162Z,10.23
2023-01-06T19:00:48.139Z,16.67
2023-01-06T19:03:39.030Z,11.70
2023-01-06T19:06:30.208Z,14.70
2023-01-06T19:08:58.814Z,12.73
2023-01-06T19:11:29.242Z,11.30
2023-01-06T19:14:01.459Z,12.27
2023-01-06T19:16:36.742Z,10.80
2023-01-06T19:19:26.618Z,13.90
2023-01-06T19:22:02.501Z,18.43
2023-01-06T19:24:45.865Z,17.20
2023-01-06T19:27:47.858Z,17.10
2023-01-06T19:30:48.916Z,15.20
2023-01-06T19:33:34.598Z,13.70
2023-01-06T19:36:38.679Z,15.88
2023-01-06T19:39:30.209Z,15.27
2023-01-06T19:42:17.021Z,20.05
2023-01-06T19:44:48.197Z,19.30
2023-01-06T19:47:23.857Z,16.73
2023-01-06T19:49:55.677Z,14.30
2023-01-06T19:52:36.454Z,15.63
2023-01-06T19:55:22.334Z,22.37
2023-01-06T19:57:52.980Z,20.53
2023-01-06T20:00:27.470Z,18.33
2023-01-06T20:02:58.691Z,16.23
2023-01-06T20:05:28.635Z,17.87
2023-01-06T20:07:58.640Z,17.90
2023-01-06T20:10:27.175Z,17.73
2023-01-06T20:12:55.657Z,17.07
2023-01-06T20:15:24.146Z,14.97
2023-01-06T20:17:52.629Z,19.27
2023-01-06T20:20:21.122Z,14.90
2023-01-06T20:22:49.637Z,17.07
2023-01-06T20:25:19.516Z,13.13
2023-01-06T20:27:48.033Z,15.97
2023-01-06T20:30:16.619Z,14.53
2023-01-06T20:32:45.212Z,14.03
2023-01-06T20:35:15.194Z,12.87
2023-01-06T20:37:43.715Z,13.33
2023-01-06T20:40:12.680Z,10.53
2023-01-06T20:42:42.537Z,13.00
2023-01-06T20:45:12.316Z,13.03
2023-01-06T20:47:41.762Z,14.43
2023-01-06T20:50:13.651Z,12.53
2023-01-06T20:52:42.478Z,11.57
2023-01-06T20:55:11.062Z,11.40
2023-01-06T20:57:39.519Z,13.27
2023-01-06T21:00:11.435Z,13.13
2023-01-06T21:02:40.503Z,15.10
2023-01-06T21:05:10.006Z,11.43
2023-01-06T21:07:38.498Z,13.63
2023-01-06T21:10:07.892Z,13.40
2023-01-06T21:12:36.502Z,14.40
2023-01-06T21:15:05.565Z,14.20
2023-01-06T21:17:35.406Z,19.97
2023-01-06T21:20:04.287Z,17.43
2023-01-06T21:22:32.834Z,17.70
2023-01-06T21:25:01.624Z,20.30
2023-01-06T21:27:30.202Z,16.93
2023-01-06T21:29:58.734Z,15.03
2023-01-06T21:32:27.248Z,16.63
2023-01-06T21:34:58.550Z,13.50
2023-01-06T21:37:27.065Z,20.43
2023-01-06T21:39:55.541Z,18.63
2023-01-06T21:42:41.434Z,17.77
2023-01-06T21:45:11.383Z,16.37
2023-01-06T21:47:39.837Z,15.87
2023-01-06T21:50:10.344Z,19.53
2023-01-06T21:52:39.024Z,19.27
2023-01-06T21:55:08.161Z,16.40
2023-01-06T21:57:37.017Z,18.03
2023-01-06T22:00:07.678Z,18.17
2023-01-06T22:02:41.361Z,19.43
2023-01-06T22:05:11.464Z,17.80
2023-01-06T22:07:44.242Z,20.13
2023-01-06T22:10:14.843Z,17.73
2023-01-06T22:12:44.853Z,19.13
2023-01-06T22:15:15.010Z,22.93
2023-01-06T22:17:43.508Z,24.10
2023-01-06T22:20:14.840Z,23.33
2023-01-06T22:22:43.734Z,18.40
2023-01-06T22:25:12.287Z,20.20
2023-01-06T22:27:40.848Z,18.10
2023-01-06T22:30:10.892Z,20.53
2023-01-06T22:32:46.633Z,16.67
2023-01-06T22:35:18.308Z,23.47
2023-01-06T22:37:47.050Z,25.63
2023-01-06T22:40:15.944Z,17.63
2023-01-06T22:42:45.000Z,20.93
2023-01-06T22:45:13.962Z,23.13
2023-01-06T22:47:42.636Z,21.10
2023-01-06T22:50:11.991Z,21.00
2023-01-06T22:52:42.030Z,18.53
2023-01-06T22:55:11.157Z,24.47
2023-01-06T22:57:39.717Z,19.67
2023-01-06T23:00:12.982Z,14.77
2023-01-06T23:02:41.563Z,19.67
2023-01-06T23:05:10.990Z,14.13
2023-01-06T23:07:42.051Z,15.93
2023-01-06T23:10:12.689Z,18.23
2023-01-06T23:12:42.675Z,18.43
2023-01-06T23:15:12.014Z,20.23
2023-01-06T23:17:40.508Z,18.27
2023-01-06T23:20:09.883Z,16.83
2023-01-06T23:22:38.380Z,18.07
2023-01-06T23:25:09.149Z,20.87
2023-01-06T23:27:38.939Z,16.13
2023-01-06T23:30:08.815Z,18.83
2023-01-06T23:32:37.268Z,20.03
2023-01-06T23:35:06.242Z,16.23
2023-01-06T23:37:34.995Z,18.33
2023-01-06T23:40:03.556Z,18.33
2023-01-06T23:42:37.526Z,15.73
2023-01-06T23:45:12.854Z,16.13
2023-01-06T23:47:41.324Z,14.30
2023-01-06T23:50:10.597Z,16.67
2023-01-06T23:52:38.997Z,21.50
2023-01-06T23:55:08.220Z,18.43
2023-01-06T23:57:38.021Z,21.70
